sensor_id;sensor_type;location;lat;lon;timestamp;temperature;humidity
7240;DHT22;3661;53.288;10.458;2022-08-27T00:00:21;20.50;99.90
7240;DHT22;3661;53.288;10.458;2022-08-27T00:02:54;20.50;99.90
7240;DHT22;3661;53.288;10.458;2022-08-27T00:05:27;20.50;99.90
7240;DHT22;3661;53.288;10.458;2022-08-27T00:08:01;20.50;99.90
7240;DHT22;3661;53.288;10.458;2022-08-27T00:10:34;20.50;99.90
7240;DHT22;3661;53.288;10.458;2022-08-27T00:13:08;20.50;99.90
7240;DHT22;3661;53.288;10.458;2022-08-27T00:15:40;20.50;99.90
7240;DHT22;3661;53.288;10.458;2022-08-27T00:18:13;20.50;99.90
7240;DHT22;3661;53.288;10.458;2022-08-27T00:20:47;20.50;99.90
7240;DHT22;3661;53.288;10.458;2022-08-27T00:23:20;20.50;99.90
7240;DHT22;3661;53.288;10.458;2022-08-27T00:25:54;20.50;99.90
7240;DHT22;3661;53.288;10.458;2022-08-27T00:28:31;20.50;99.90
7240;DHT22;3661;53.288;10.458;2022-08-27T00:31:04;20.50;99.90
7240;DHT22;3661;53.288;10.458;2022-08-27T00:33:36;20.50;99.90
7240;DHT22;3661;53.288;10.458;2022-08-27T00:36:10;20.50;99.90
7240;DHT22;3661;53.288;10.458;2022-08-27T00:38:43;20.50;99.90
7240;DHT22;3661;53.288;10.458;2022-08-27T00:41:17;20.50;99.90
7240;DHT22;3661;53.288;10.458;2022-08-27T00:43:58;20.50;99.90
7240;DHT22;3661;53.288;10.458;2022-08-27T00:46:35;20.50;99.90
7240;DHT22;3661;53.288;10.458;2022-08-27T00:49:16;20.50;99.90
7240;DHT22;3661;53.288;10.458;2022-08-27T00:51:54;20.40;99.90
7240;DHT22;3661;53.288;10.458;2022-08-27T00:54:27;20.40;99.90
7240;DHT22;3661;53.288;10.458;2022-08-27T00:57:00;20.40;99.90
7240;DHT22;3661;53.288;10.458;2022-08-27T00:59:36;20.40;99.90
7240;DHT22;3661;53.288;10.458;2022-08-27T01:02:09;20.40;99.90
7240;DHT22;3661;53.288;10.458;2022-08-27T01:04:53;20.40;99.90
7240;DHT22;3661;53.288;10.458;2022-08-27T01:07:29;20.40;99.90
7240;DHT22;3661;53.288;10.458;2022-08-27T01:10:07;20.40;99.90
7240;DHT22;3661;53.288;10.458;2022-08-27T01:12:41;20.40;99.90
7240;DHT22;3661;53.288;10.458;2022-08-27T01:15:16;20.40;99.90
7240;DHT22;3661;53.288;10.458;2022-08-27T01:17:50;20.40;99.90
7240;DHT22;3661;53.288;10.458;2022-08-27T01:20:25;20.40;99.90
7240;DHT22;3661;53.288;10.458;2022-08-27T01:23:03;20.40;99.90
7240;DHT22;3661;53.288;10.458;2022-08-27T01:25:40;20.40;99.90
7240;DHT22;3661;53.288;10.458;2022-08-27T01:28:13;20.30;99.90
7240;DHT22;3661;53.288;10.458;2022-08-27T01:30:46;20.30;99.90
7240;DHT22;3661;53.288;10.458;2022-08-27T01:33:20;20.30;99.90
7240;DHT22;3661;53.288;10.458;2022-08-27T01:35:53;20.30;99.90
7240;DHT22;3661;53.288;10.458;2022-08-27T01:38:25;20.30;99.90
7240;DHT22;3661;53.288;10.458;2022-08-27T01:41:01;20.30;99.90
7240;DHT22;3661;53.288;10.458;2022-08-27T01:43:34;20.30;99.90
7240;DHT22;3661;53.288;10.458;2022-08-27T01:46:06;20.30;99.90
7240;DHT22;3661;53.288;10.458;2022-08-27T01:48:38;20.30;99.90
7240;DHT22;3661;53.288;10.458;2022-08-27T01:51:10;20.30;99.90
7240;DHT22;3661;53.288;10.458;2022-08-27T01:54:11;20.20;99.90
7240;DHT22;3661;53.288;10.458;2022-08-27T01:56:59;20.20;99.90
7240;DHT22;3661;53.288;10.458;2022-08-27T01:59:31;20.20;99.90
7240;DHT22;3661;53.288;10.458;2022-08-27T02:02:05;20.20;99.90
7240;DHT22;3661;53.288;10.458;2022-08-27T02:04:38;20.20;99.90
7240;DHT22;3661;53.288;10.458;2022-08-27T02:07:12;20.20;99.90
7240;DHT22;3661;53.288;10.458;2022-08-27T02:09:45;20.20;99.90
7240;DHT22;3661;53.288;10.458;2022-08-27T02:12:19;20.10;99.90
7240;DHT22;3661;53.288;10.458;2022-08-27T02:14:51;20.10;99.90
7240;DHT22;3661;53.288;10.458;2022-08-27T02:17:24;20.10;99.90
7240;DHT22;3661;53.288;10.458;2022-08-27T02:19:56;20.10;99.90
7240;DHT22;3661;53.288;10.458;2022-08-27T02:22:29;20.10;99.90
7240;DHT22;3661;53.288;10.458;2022-08-27T02:25:01;20.10;99.90
7240;DHT22;3661;53.288;10.458;2022-08-27T02:27:35;20.10;99.90
7240;DHT22;3661;53.288;10.458;2022-08-27T02:30:10;20.10;99.90
7240;DHT22;3661;53.288;10.458;2022-08-27T02:32:43;20.00;99.90
7240;DHT22;3661;53.288;10.458;2022-08-27T02:35:17;20.00;99.90
7240;DHT22;3661;53.288;10.458;2022-08-27T02:37:51;20.00;99.90
7240;DHT22;3661;53.288;10.458;2022-08-27T02:40:24;20.00;99.90
7240;DHT22;3661;53.288;10.458;2022-08-27T02:42:58;20.00;99.90
7240;DHT22;3661;53.288;10.458;2022-08-27T02:45:32;20.00;99.90
7240;DHT22;3661;53.288;10.458;2022-08-27T02:48:05;20.00;99.90
7240;DHT22;3661;53.288;10.458;2022-08-27T02:50:38;20.00;99.90
7240;DHT22;3661;53.288;10.458;2022-08-27T02:53:11;20.00;99.90
7240;DHT22;3661;53.288;10.458;2022-08-27T02:55:43;20.00;99.90
7240;DHT22;3661;53.288;10.458;2022-08-27T02:58:17;19.90;99.90
7240;DHT22;3661;53.288;10.458;2022-08-27T03:00:49;19.90;99.90
7240;DHT22;3661;53.288;10.458;2022-08-27T03:03:22;19.90;99.90
7240;DHT22;3661;53.288;10.458;2022-08-27T03:05:55;19.90;99.90
7240;DHT22;3661;53.288;10.458;2022-08-27T03:08:28;19.90;99.90
7240;DHT22;3661;53.288;10.458;2022-08-27T03:11:00;19.90;99.90
7240;DHT22;3661;53.288;10.458;2022-08-27T03:13:36;19.90;99.90
7240;DHT22;3661;53.288;10.458;2022-08-27T03:16:09;19.90;99.90
7240;DHT22;3661;53.288;10.458;2022-08-27T03:18:43;19.90;99.90
7240;DHT22;3661;53.288;10.458;2022-08-27T03:21:16;19.90;99.90
7240;DHT22;3661;53.288;10.458;2022-08-27T03:23:49;19.80;99.90
7240;DHT22;3661;53.288;10.458;2022-08-27T03:26:22;19.80;99.90
7240;DHT22;3661;53.288;10.458;2022-08-27T03:28:56;19.80;99.90
7240;DHT22;3661;53.288;10.458;2022-08-27T03:31:28;19.80;99.90
7240;DHT22;3661;53.288;10.458;2022-08-27T03:34:04;19.80;99.90
7240;DHT22;3661;53.288;10.458;2022-08-27T03:36:39;19.80;99.90
7240;DHT22;3661;53.288;10.458;2022-08-27T03:39:11;19.80;99.90
7240;DHT22;3661;53.288;10.458;2022-08-27T03:41:49;19.80;99.90
7240;DHT22;3661;53.288;10.458;2022-08-27T03:44:23;19.70;99.90
7240;DHT22;3661;53.288;10.458;2022-08-27T03:46:57;19.70;99.90
7240;DHT22;3661;53.288;10.458;2022-08-27T03:49:30;19.70;99.90
7240;DHT22;3661;53.288;10.458;2022-08-27T03:52:03;19.70;99.90
7240;DHT22;3661;53.288;10.458;2022-08-27T03:54:35;19.70;99.90
7240;DHT22;3661;53.288;10.458;2022-08-27T03:57:08;19.70;99.90
7240;DHT22;3661;53.288;10.458;2022-08-27T03:59:43;19.70;99.90
7240;DHT22;3661;53.288;10.458;2022-08-27T04:02:16;19.70;99.90
7240;DHT22;3661;53.288;10.458;2022-08-27T04:04:48;19.70;99.90
7240;DHT22;3661;53.288;10.458;2022-08-27T04:07:22;19.70;99.90
7240;DHT22;3661;53.288;10.458;2022-08-27T04:09:54;19.70;99.90
7240;DHT22;3661;53.288;10.458;2022-08-27T04:12:27;19.70;99.90
7240;DHT22;3661;53.288;10.458;2022-08-27T04:15:05;19.70;99.90
7240;DHT22;3661;53.288;10.458;2022-08-27T04:17:39;19.60;99.90
7240;DHT22;3661;53.288;10.458;2022-08-27T04:20:12;19.60;99.90
7240;DHT22;3661;53.288;10.458;2022-08-27T04:22:44;19.60;99.90
7240;DHT22;3661;53.288;10.458;2022-08-27T04:25:18;19.60;99.90
7240;DHT22;3661;53.288;10.458;2022-08-27T04:27:51;19.60;99.90
7240;DHT22;3661;53.288;10.458;2022-08-27T04:30:24;19.60;99.90
7240;DHT22;3661;53.288;10.458;2022-08-27T04:32:57;19.60;99.90
7240;DHT22;3661;53.288;10.458;2022-08-27T04:35:29;19.60;99.90
7240;DHT22;3661;53.288;10.458;2022-08-27T04:38:05;19.50;99.90
7240;DHT22;3661;53.288;10.458;2022-08-27T04:40:42;19.60;99.90
7240;DHT22;3661;53.288;10.458;2022-08-27T04:43:37;19.60;99.90
7240;DHT22;3661;53.288;10.458;2022-08-27T04:46:21;19.50;99.90
7240;DHT22;3661;53.288;10.458;2022-08-27T04:48:54;19.50;99.90
7240;DHT22;3661;53.288;10.458;2022-08-27T04:51:28;19.50;99.90
7240;DHT22;3661;53.288;10.458;2022-08-27T04:54:02;19.50;99.90
7240;DHT22;3661;53.288;10.458;2022-08-27T04:56:36;19.50;99.90
7240;DHT22;3661;53.288;10.458;2022-08-27T04:59:14;19.50;99.90
7240;DHT22;3661;53.288;10.458;2022-08-27T05:01:52;19.50;99.90
7240;DHT22;3661;53.288;10.458;2022-08-27T05:04:25;19.50;99.90
7240;DHT22;3661;53.288;10.458;2022-08-27T05:06:57;19.50;99.90
7240;DHT22;3661;53.288;10.458;2022-08-27T05:09:31;19.50;99.90
7240;DHT22;3661;53.288;10.458;2022-08-27T05:12:04;19.50;99.90
7240;DHT22;3661;53.288;10.458;2022-08-27T05:14:37;19.50;99.90
7240;DHT22;3661;53.288;10.458;2022-08-27T05:17:12;19.50;99.90
7240;DHT22;3661;53.288;10.458;2022-08-27T05:19:50;19.40;99.90
7240;DHT22;3661;53.288;10.458;2022-08-27T05:26:03;19.50;99.90
7240;DHT22;3661;53.288;10.458;2022-08-27T05:28:40;19.50;99.90
7240;DHT22;3661;53.288;10.458;2022-08-27T05:31:19;19.50;99.90
7240;DHT22;3661;53.288;10.458;2022-08-27T05:33:53;19.40;99.90
7240;DHT22;3661;53.288;10.458;2022-08-27T05:36:28;19.40;99.90
7240;DHT22;3661;53.288;10.458;2022-08-27T05:39:04;19.40;99.90
7240;DHT22;3661;53.288;10.458;2022-08-27T05:41:37;19.40;99.90
7240;DHT22;3661;53.288;10.458;2022-08-27T05:44:09;19.40;99.90
7240;DHT22;3661;53.288;10.458;2022-08-27T05:46:49;19.40;99.90
7240;DHT22;3661;53.288;10.458;2022-08-27T05:49:22;19.40;99.90
7240;DHT22;3661;53.288;10.458;2022-08-27T05:51:54;19.40;99.90
7240;DHT22;3661;53.288;10.458;2022-08-27T05:54:27;19.40;99.90
7240;DHT22;3661;53.288;10.458;2022-08-27T05:57:00;19.40;99.90
7240;DHT22;3661;53.288;10.458;2022-08-27T05:59:32;19.40;99.90
7240;DHT22;3661;53.288;10.458;2022-08-27T06:02:23;19.40;99.90
7240;DHT22;3661;53.288;10.458;2022-08-27T06:04:58;19.40;99.90
7240;DHT22;3661;53.288;10.458;2022-08-27T06:07:32;19.40;99.90
7240;DHT22;3661;53.288;10.458;2022-08-27T06:10:10;19.40;99.90
7240;DHT22;3661;53.288;10.458;2022-08-27T06:12:42;19.40;99.90
7240;DHT22;3661;53.288;10.458;2022-08-27T06:15:15;19.40;99.90
7240;DHT22;3661;53.288;10.458;2022-08-27T06:17:48;19.40;99.90
7240;DHT22;3661;53.288;10.458;2022-08-27T06:20:22;19.50;99.90
7240;DHT22;3661;53.288;10.458;2022-08-27T06:22:55;19.50;99.90
7240;DHT22;3661;53.288;10.458;2022-08-27T06:25:27;19.50;99.90
7240;DHT22;3661;53.288;10.458;2022-08-27T06:28:02;19.50;99.90
7240;DHT22;3661;53.288;10.458;2022-08-27T06:30:35;19.50;99.90
7240;DHT22;3661;53.288;10.458;2022-08-27T06:33:07;19.50;99.90
7240;DHT22;3661;53.288;10.458;2022-08-27T06:35:41;19.50;99.90
7240;DHT22;3661;53.288;10.458;2022-08-27T06:38:13;19.50;99.90
7240;DHT22;3661;53.288;10.458;2022-08-27T06:40:46;19.50;99.90
7240;DHT22;3661;53.288;10.458;2022-08-27T06:43:18;19.50;99.90
7240;DHT22;3661;53.288;10.458;2022-08-27T06:45:50;19.50;99.90
7240;DHT22;3661;53.288;10.458;2022-08-27T06:48:23;19.50;99.90
7240;DHT22;3661;53.288;10.458;2022-08-27T06:50:56;19.50;99.90
7240;DHT22;3661;53.288;10.458;2022-08-27T06:53:29;19.50;99.90
7240;DHT22;3661;53.288;10.458;2022-08-27T06:56:02;19.50;99.90
7240;DHT22;3661;53.288;10.458;2022-08-27T06:58:34;19.50;99.90
7240;DHT22;3661;53.288;10.458;2022-08-27T07:01:12;19.50;99.90
7240;DHT22;3661;53.288;10.458;2022-08-27T07:03:44;19.50;99.90
7240;DHT22;3661;53.288;10.458;2022-08-27T07:06:19;19.50;99.90
7240;DHT22;3661;53.288;10.458;2022-08-27T07:08:58;19.50;99.90
7240;DHT22;3661;53.288;10.458;2022-08-27T07:11:35;19.50;99.90
7240;DHT22;3661;53.288;10.458;2022-08-27T07:14:10;19.50;99.90
7240;DHT22;3661;53.288;10.458;2022-08-27T07:16:42;19.50;99.90
7240;DHT22;3661;53.288;10.458;2022-08-27T07:19:14;19.50;99.90
7240;DHT22;3661;53.288;10.458;2022-08-27T07:21:48;19.50;99.90
7240;DHT22;3661;53.288;10.458;2022-08-27T07:24:21;19.50;99.90
7240;DHT22;3661;53.288;10.458;2022-08-27T07:26:57;19.50;99.90
7240;DHT22;3661;53.288;10.458;2022-08-27T07:29:30;19.50;99.90
7240;DHT22;3661;53.288;10.458;2022-08-27T07:32:04;19.50;99.90
7240;DHT22;3661;53.288;10.458;2022-08-27T07:34:36;19.50;99.90
7240;DHT22;3661;53.288;10.458;2022-08-27T07:37:11;19.60;99.90
7240;DHT22;3661;53.288;10.458;2022-08-27T07:39:44;19.50;99.90
7240;DHT22;3661;53.288;10.458;2022-08-27T07:42:16;19.50;99.90
7240;DHT22;3661;53.288;10.458;2022-08-27T07:45:11;19.50;99.90
7240;DHT22;3661;53.288;10.458;2022-08-27T07:47:44;19.50;99.90
7240;DHT22;3661;53.288;10.458;2022-08-27T07:50:17;19.50;99.90
7240;DHT22;3661;53.288;10.458;2022-08-27T07:52:51;19.50;99.90
7240;DHT22;3661;53.288;10.458;2022-08-27T07:55:24;19.50;99.90
7240;DHT22;3661;53.288;10.458;2022-08-27T08:01:23;19.50;99.90
7240;DHT22;3661;53.288;10.458;2022-08-27T08:03:57;19.60;99.90
7240;DHT22;3661;53.288;10.458;2022-08-27T08:06:36;19.60;99.90
7240;DHT22;3661;53.288;10.458;2022-08-27T08:09:12;19.60;99.90
7240;DHT22;3661;53.288;10.458;2022-08-27T08:11:54;19.60;99.90
7240;DHT22;3661;53.288;10.458;2022-08-27T08:14:28;19.60;99.90
7240;DHT22;3661;53.288;10.458;2022-08-27T08:17:02;19.60;99.90
7240;DHT22;3661;53.288;10.458;2022-08-27T08:19:35;19.60;99.90
7240;DHT22;3661;53.288;10.458;2022-08-27T08:22:08;19.60;99.90
7240;DHT22;3661;53.288;10.458;2022-08-27T08:24:44;19.60;99.90
7240;DHT22;3661;53.288;10.458;2022-08-27T08:27:16;19.60;99.90
7240;DHT22;3661;53.288;10.458;2022-08-27T08:29:49;19.60;99.90
7240;DHT22;3661;53.288;10.458;2022-08-27T08:32:21;19.60;99.90
7240;DHT22;3661;53.288;10.458;2022-08-27T08:34:55;19.60;99.90
7240;DHT22;3661;53.288;10.458;2022-08-27T08:37:29;19.60;99.90
7240;DHT22;3661;53.288;10.458;2022-08-27T08:40:05;19.70;99.90
7240;DHT22;3661;53.288;10.458;2022-08-27T08:42:41;19.70;99.90
7240;DHT22;3661;53.288;10.458;2022-08-27T08:45:15;19.70;99.90
7240;DHT22;3661;53.288;10.458;2022-08-27T08:48:00;19.70;99.90
7240;DHT22;3661;53.288;10.458;2022-08-27T08:50:42;19.80;99.90
7240;DHT22;3661;53.288;10.458;2022-08-27T08:53:36;19.80;99.90
7240;DHT22;3661;53.288;10.458;2022-08-27T08:56:16;19.80;99.90
7240;DHT22;3661;53.288;10.458;2022-08-27T08:58:54;19.80;99.90
7240;DHT22;3661;53.288;10.458;2022-08-27T09:01:27;19.80;99.90
7240;DHT22;3661;53.288;10.458;2022-08-27T09:04:06;19.80;99.90
7240;DHT22;3661;53.288;10.458;2022-08-27T09:06:43;19.80;99.90
7240;DHT22;3661;53.288;10.458;2022-08-27T09:09:21;19.80;99.90
7240;DHT22;3661;53.288;10.458;2022-08-27T09:12:02;19.80;99.90
7240;DHT22;3661;53.288;10.458;2022-08-27T09:14:52;19.80;99.90
7240;DHT22;3661;53.288;10.458;2022-08-27T09:17:28;19.80;99.90
7240;DHT22;3661;53.288;10.458;2022-08-27T09:20:18;19.80;99.90
7240;DHT22;3661;53.288;10.458;2022-08-27T09:22:56;19.80;99.90
7240;DHT22;3661;53.288;10.458;2022-08-27T09:25:34;19.80;99.90
7240;DHT22;3661;53.288;10.458;2022-08-27T09:28:12;19.80;99.90
7240;DHT22;3661;53.288;10.458;2022-08-27T09:31:02;19.80;99.90
7240;DHT22;3661;53.288;10.458;2022-08-27T09:33:35;19.80;99.90
7240;DHT22;3661;53.288;10.458;2022-08-27T09:36:10;19.80;99.90
7240;DHT22;3661;53.288;10.458;2022-08-27T09:38:51;19.90;99.90
7240;DHT22;3661;53.288;10.458;2022-08-27T09:41:30;19.80;99.90
7240;DHT22;3661;53.288;10.458;2022-08-27T09:44:10;19.80;99.90
7240;DHT22;3661;53.288;10.458;2022-08-27T09:46:51;19.80;99.90
7240;DHT22;3661;53.288;10.458;2022-08-27T09:49:26;19.80;99.90
7240;DHT22;3661;53.288;10.458;2022-08-27T09:51:59;19.80;99.90
7240;DHT22;3661;53.288;10.458;2022-08-27T09:54:40;19.80;99.90
7240;DHT22;3661;53.288;10.458;2022-08-27T09:57:32;19.80;99.90
7240;DHT22;3661;53.288;10.458;2022-08-27T10:00:14;19.80;99.90
7240;DHT22;3661;53.288;10.458;2022-08-27T10:02:51;19.80;99.90
7240;DHT22;3661;53.288;10.458;2022-08-27T10:05:28;19.80;99.90
7240;DHT22;3661;53.288;10.458;2022-08-27T10:11:36;19.80;99.90
7240;DHT22;3661;53.288;10.458;2022-08-27T10:14:13;19.80;99.90
7240;DHT22;3661;53.288;10.458;2022-08-27T10:17:06;19.80;99.90
7240;DHT22;3661;53.288;10.458;2022-08-27T10:19:53;19.80;99.90
7240;DHT22;3661;53.288;10.458;2022-08-27T10:22:39;19.80;99.90
7240;DHT22;3661;53.288;10.458;2022-08-27T10:25:22;19.80;99.90
7240;DHT22;3661;53.288;10.458;2022-08-27T10:28:05;19.80;99.90
7240;DHT22;3661;53.288;10.458;2022-08-27T10:30:50;19.80;99.90
7240;DHT22;3661;53.288;10.458;2022-08-27T10:33:33;19.80;99.90
7240;DHT22;3661;53.288;10.458;2022-08-27T10:36:17;19.70;99.90
7240;DHT22;3661;53.288;10.458;2022-08-27T10:38:56;19.70;99.90
7240;DHT22;3661;53.288;10.458;2022-08-27T10:41:33;19.70;99.90
7240;DHT22;3661;53.288;10.458;2022-08-27T10:44:18;19.70;99.90
7240;DHT22;3661;53.288;10.458;2022-08-27T10:47:10;19.70;99.90
7240;DHT22;3661;53.288;10.458;2022-08-27T10:49:54;19.60;99.90
7240;DHT22;3661;53.288;10.458;2022-08-27T10:52:33;19.60;99.90
7240;DHT22;3661;53.288;10.458;2022-08-27T10:55:14;19.60;99.90
7240;DHT22;3661;53.288;10.458;2022-08-27T11:01:04;19.60;99.90
7240;DHT22;3661;53.288;10.458;2022-08-27T11:03:42;19.60;99.90
7240;DHT22;3661;53.288;10.458;2022-08-27T11:06:22;19.60;99.90
7240;DHT22;3661;53.288;10.458;2022-08-27T11:08:59;19.60;99.90
7240;DHT22;3661;53.288;10.458;2022-08-27T11:11:37;19.60;99.90
7240;DHT22;3661;53.288;10.458;2022-08-27T11:14:19;19.60;99.90
7240;DHT22;3661;53.288;10.458;2022-08-27T11:16:55;19.60;99.90
7240;DHT22;3661;53.288;10.458;2022-08-27T11:19:36;19.60;99.90
7240;DHT22;3661;53.288;10.458;2022-08-27T11:22:19;19.60;99.90
7240;DHT22;3661;53.288;10.458;2022-08-27T11:24:58;19.70;99.90
7240;DHT22;3661;53.288;10.458;2022-08-27T11:27:32;19.60;99.90
7240;DHT22;3661;53.288;10.458;2022-08-27T11:30:08;19.60;99.90
7240;DHT22;3661;53.288;10.458;2022-08-27T11:32:50;19.60;99.90
7240;DHT22;3661;53.288;10.458;2022-08-27T11:35:34;19.60;99.90
7240;DHT22;3661;53.288;10.458;2022-08-27T11:41:24;19.60;99.90
7240;DHT22;3661;53.288;10.458;2022-08-27T11:43:59;19.60;99.90
7240;DHT22;3661;53.288;10.458;2022-08-27T11:46:42;19.50;99.90
7240;DHT22;3661;53.288;10.458;2022-08-27T11:49:24;19.50;99.90
7240;DHT22;3661;53.288;10.458;2022-08-27T11:52:00;19.50;99.90
7240;DHT22;3661;53.288;10.458;2022-08-27T11:54:45;19.50;99.90
7240;DHT22;3661;53.288;10.458;2022-08-27T11:57:28;19.50;99.90
7240;DHT22;3661;53.288;10.458;2022-08-27T12:00:16;19.50;99.90
7240;DHT22;3661;53.288;10.458;2022-08-27T12:02:59;19.60;99.90
7240;DHT22;3661;53.288;10.458;2022-08-27T12:05:39;19.60;99.90
7240;DHT22;3661;53.288;10.458;2022-08-27T12:08:15;19.60;99.90
7240;DHT22;3661;53.288;10.458;2022-08-27T12:11:02;19.70;99.90
7240;DHT22;3661;53.288;10.458;2022-08-27T12:13:42;19.70;99.90
7240;DHT22;3661;53.288;10.458;2022-08-27T12:16:25;19.80;99.90
7240;DHT22;3661;53.288;10.458;2022-08-27T12:19:13;19.80;99.90
7240;DHT22;3661;53.288;10.458;2022-08-27T12:22:00;19.90;99.90
7240;DHT22;3661;53.288;10.458;2022-08-27T12:24:47;20.00;99.90
7240;DHT22;3661;53.288;10.458;2022-08-27T12:27:31;20.00;99.90
7240;DHT22;3661;53.288;10.458;2022-08-27T12:30:19;20.10;99.90
7240;DHT22;3661;53.288;10.458;2022-08-27T12:32:52;20.20;99.90
7240;DHT22;3661;53.288;10.458;2022-08-27T12:35:30;20.30;99.90
7240;DHT22;3661;53.288;10.458;2022-08-27T12:38:11;20.40;99.90
7240;DHT22;3661;53.288;10.458;2022-08-27T12:40:49;20.50;99.90
7240;DHT22;3661;53.288;10.458;2022-08-27T12:43:27;20.60;99.90
7240;DHT22;3661;53.288;10.458;2022-08-27T12:46:02;20.70;99.90
7240;DHT22;3661;53.288;10.458;2022-08-27T12:48:37;20.80;99.90
7240;DHT22;3661;53.288;10.458;2022-08-27T12:51:17;20.80;99.90
7240;DHT22;3661;53.288;10.458;2022-08-27T12:53:55;20.80;99.90
7240;DHT22;3661;53.288;10.458;2022-08-27T12:56:48;20.90;99.90
7240;DHT22;3661;53.288;10.458;2022-08-27T12:59:48;21.00;99.90
7240;DHT22;3661;53.288;10.458;2022-08-27T13:02:42;21.00;99.90
7240;DHT22;3661;53.288;10.458;2022-08-27T13:05:21;21.10;99.90
7240;DHT22;3661;53.288;10.458;2022-08-27T13:07:53;21.10;99.90
7240;DHT22;3661;53.288;10.458;2022-08-27T13:10:28;21.10;99.90
7240;DHT22;3661;53.288;10.458;2022-08-27T13:13:04;21.20;99.90
7240;DHT22;3661;53.288;10.458;2022-08-27T13:15:44;21.20;99.90
7240;DHT22;3661;53.288;10.458;2022-08-27T13:18:17;21.30;99.90
7240;DHT22;3661;53.288;10.458;2022-08-27T13:20:58;21.40;99.90
7240;DHT22;3661;53.288;10.458;2022-08-27T13:23:32;21.40;99.90
7240;DHT22;3661;53.288;10.458;2022-08-27T13:26:07;21.30;99.90
7240;DHT22;3661;53.288;10.458;2022-08-27T13:28:41;21.40;99.90
7240;DHT22;3661;53.288;10.458;2022-08-27T13:31:16;21.50;99.90
7240;DHT22;3661;53.288;10.458;2022-08-27T13:33:49;21.50;99.90
7240;DHT22;3661;53.288;10.458;2022-08-27T13:36:30;21.50;99.90
7240;DHT22;3661;53.288;10.458;2022-08-27T13:39:05;21.50;99.90
7240;DHT22;3661;53.288;10.458;2022-08-27T13:41:39;21.60;99.90
7240;DHT22;3661;53.288;10.458;2022-08-27T13:44:13;21.70;99.90
7240;DHT22;3661;53.288;10.458;2022-08-27T13:46:52;21.60;99.90
7240;DHT22;3661;53.288;10.458;2022-08-27T13:49:27;21.70;99.90
7240;DHT22;3661;53.288;10.458;2022-08-27T13:52:11;21.70;99.90
7240;DHT22;3661;53.288;10.458;2022-08-27T13:54:48;21.80;99.90
7240;DHT22;3661;53.288;10.458;2022-08-27T13:57:24;21.80;99.90
7240;DHT22;3661;53.288;10.458;2022-08-27T14:00:08;21.90;99.90
7240;DHT22;3661;53.288;10.458;2022-08-27T14:02:43;22.00;99.90
7240;DHT22;3661;53.288;10.458;2022-08-27T14:05:27;22.10;99.90
7240;DHT22;3661;53.288;10.458;2022-08-27T14:08:10;22.10;99.90
7240;DHT22;3661;53.288;10.458;2022-08-27T14:10:47;22.20;99.90
7240;DHT22;3661;53.288;10.458;2022-08-27T14:13:22;22.30;99.90
7240;DHT22;3661;53.288;10.458;2022-08-27T14:15:56;22.30;99.90
7240;DHT22;3661;53.288;10.458;2022-08-27T14:18:33;22.50;99.90
7240;DHT22;3661;53.288;10.458;2022-08-27T14:21:08;22.50;99.90
7240;DHT22;3661;53.288;10.458;2022-08-27T14:23:41;22.70;99.90
7240;DHT22;3661;53.288;10.458;2022-08-27T14:26:13;22.90;99.90
7240;DHT22;3661;53.288;10.458;2022-08-27T14:28:46;23.00;99.90
7240;DHT22;3661;53.288;10.458;2022-08-27T14:31:19;23.20;99.90
7240;DHT22;3661;53.288;10.458;2022-08-27T14:33:53;23.40;99.90
7240;DHT22;3661;53.288;10.458;2022-08-27T14:36:28;23.70;99.90
7240;DHT22;3661;53.288;10.458;2022-08-27T14:39:01;23.90;99.90
7240;DHT22;3661;53.288;10.458;2022-08-27T14:41:34;24.10;99.90
7240;DHT22;3661;53.288;10.458;2022-08-27T14:44:06;24.30;99.90
7240;DHT22;3661;53.288;10.458;2022-08-27T14:46:39;24.40;99.90
7240;DHT22;3661;53.288;10.458;2022-08-27T14:49:18;24.60;99.90
7240;DHT22;3661;53.288;10.458;2022-08-27T14:51:52;24.70;99.90
7240;DHT22;3661;53.288;10.458;2022-08-27T14:54:24;24.80;99.90
7240;DHT22;3661;53.288;10.458;2022-08-27T14:56:57;24.80;99.90
7240;DHT22;3661;53.288;10.458;2022-08-27T14:59:29;24.80;99.90
7240;DHT22;3661;53.288;10.458;2022-08-27T15:02:05;24.90;99.90
7240;DHT22;3661;53.288;10.458;2022-08-27T15:04:39;24.90;99.90
7240;DHT22;3661;53.288;10.458;2022-08-27T15:07:11;25.00;99.90
7240;DHT22;3661;53.288;10.458;2022-08-27T15:09:44;25.00;99.90
7240;DHT22;3661;53.288;10.458;2022-08-27T15:12:16;25.10;99.90
7240;DHT22;3661;53.288;10.458;2022-08-27T15:14:48;25.20;99.90
7240;DHT22;3661;53.288;10.458;2022-08-27T15:17:22;25.30;99.90
7240;DHT22;3661;53.288;10.458;2022-08-27T15:19:55;25.50;99.90
7240;DHT22;3661;53.288;10.458;2022-08-27T15:22:32;25.60;99.90
7240;DHT22;3661;53.288;10.458;2022-08-27T15:25:05;25.70;99.90
7240;DHT22;3661;53.288;10.458;2022-08-27T15:27:40;25.80;99.90
7240;DHT22;3661;53.288;10.458;2022-08-27T15:30:15;25.80;99.90
7240;DHT22;3661;53.288;10.458;2022-08-27T15:32:49;25.90;99.90
7240;DHT22;3661;53.288;10.458;2022-08-27T15:35:24;25.90;99.90
7240;DHT22;3661;53.288;10.458;2022-08-27T15:37:57;25.90;99.90
7240;DHT22;3661;53.288;10.458;2022-08-27T15:40:33;25.90;99.90
7240;DHT22;3661;53.288;10.458;2022-08-27T15:43:06;25.90;99.90
7240;DHT22;3661;53.288;10.458;2022-08-27T15:45:39;25.90;99.90
7240;DHT22;3661;53.288;10.458;2022-08-27T15:48:11;25.90;99.90
7240;DHT22;3661;53.288;10.458;2022-08-27T15:50:46;25.90;99.90
7240;DHT22;3661;53.288;10.458;2022-08-27T15:53:20;25.90;99.90
7240;DHT22;3661;53.288;10.458;2022-08-27T15:55:53;25.90;99.90
7240;DHT22;3661;53.288;10.458;2022-08-27T15:58:26;25.90;99.90
7240;DHT22;3661;53.288;10.458;2022-08-27T16:01:08;25.80;99.90
7240;DHT22;3661;53.288;10.458;2022-08-27T16:03:43;25.80;99.90
7240;DHT22;3661;53.288;10.458;2022-08-27T16:06:18;25.80;99.90
7240;DHT22;3661;53.288;10.458;2022-08-27T16:08:50;25.80;99.90
7240;DHT22;3661;53.288;10.458;2022-08-27T16:11:22;25.80;99.90
7240;DHT22;3661;53.288;10.458;2022-08-27T16:13:55;25.80;99.90
7240;DHT22;3661;53.288;10.458;2022-08-27T16:16:30;25.80;99.90
7240;DHT22;3661;53.288;10.458;2022-08-27T16:19:04;25.70;99.90
7240;DHT22;3661;53.288;10.458;2022-08-27T16:21:38;25.70;99.90
7240;DHT22;3661;53.288;10.458;2022-08-27T16:24:11;25.70;99.90
7240;DHT22;3661;53.288;10.458;2022-08-27T16:26:43;25.60;99.90
7240;DHT22;3661;53.288;10.458;2022-08-27T16:29:15;25.60;99.90
7240;DHT22;3661;53.288;10.458;2022-08-27T16:31:51;25.50;99.90
7240;DHT22;3661;53.288;10.458;2022-08-27T16:34:26;25.50;99.90
7240;DHT22;3661;53.288;10.458;2022-08-27T16:37:00;25.50;99.90
7240;DHT22;3661;53.288;10.458;2022-08-27T16:39:32;25.40;99.90
7240;DHT22;3661;53.288;10.458;2022-08-27T16:42:05;25.40;99.90
7240;DHT22;3661;53.288;10.458;2022-08-27T16:44:40;25.30;99.90
7240;DHT22;3661;53.288;10.458;2022-08-27T16:47:12;25.20;99.90
7240;DHT22;3661;53.288;10.458;2022-08-27T16:49:44;25.10;99.90
7240;DHT22;3661;53.288;10.458;2022-08-27T16:52:35;25.00;99.90
7240;DHT22;3661;53.288;10.458;2022-08-27T16:55:08;24.90;99.90
7240;DHT22;3661;53.288;10.458;2022-08-27T16:57:41;24.70;99.90